Thunder radar more information blitzortung!


Löydät sääaseman tiedot myös:

European Weather Network

Finland Weather Exchange

Weather Underground

AWEKAS



Weather Underground säähistoriasivu

Päivittäin yhteenveto Kesäkuu 2, 2017 Yksiköt:  Englantilaiset    Metriset   Molemmat
« Edellinen Päivä
Seuraava Päivä »
Päivittäin Viikoittain Kuukausittain Vuosittain Mukautettu
  Korkea: Matala: Keskiarvo:
Lämpötila: TemperatureC °F 2.1 °F 5.2 °F
Kastepiste: DewpointC °F -1.3 °F 0.1 °F
Kosteus: Humidity % 47 % 71 %
Tuulen nopeus: WindSpeedKMH mph 0.0 mph 4.7 mph
Tuulenpuuska: WindSpeedGustKMH mph - -
Tuuli:- - WNW
Ilmanpaine: PressurehPa in 1006.0 in -
Sade: 1.0 in    
Historical Graphs
 
 
Taulukkotiedot Kesäkuu 2, 2017
Aika Lämpötila Kastepiste Ilmanpaine Tuuli Tuulen nopeus Tuulenpuuska Kosteus Sademäärä (tunneittain)
TemperatureC °F DewpointC °F PressurehPa in Calm     Humidity % HourlyPrecipMM in
00:00 3.6 °F 0.1 °F 1006.0 in WNW 1.6 mph 8.0 mph 78 % 0.0 in
00:15 3.3 °F 0.2 °F 1006.0 in NW 1.6 mph 11.3 mph 80 % 0.0 in
00:30 3.1 °F 0.1 °F 1006.0 in WNW 1.6 mph 9.7 mph 81 % 0.0 in
00:45 2.8 °F 0.2 °F 1006.0 in NW 3.2 mph 9.7 mph 83 % 0.0 in
01:00 2.8 °F 0.2 °F 1006.0 in NW 3.2 mph 9.7 mph 83 % 0.0 in
01:15 2.8 °F 0.2 °F 1006.0 in NW 1.6 mph 11.3 mph 83 % 0.0 in
01:30 2.7 °F 0.2 °F 1006.0 in Calm   8.0 mph 84 % 0.0 in
01:45 2.5 °F 0.1 °F 1006.3 in WNW 3.2 mph 8.0 mph 84 % 0.0 in
02:00 2.4 °F 0.0 °F 1006.0 in Calm   4.8 mph 84 % 0.0 in
02:15 2.2 °F 0.0 °F 1006.0 in Calm   4.8 mph 85 % 0.0 in
02:30 2.3 °F 0.2 °F 1006.0 in WNW 3.2 mph 12.9 mph 86 % 0.0 in
02:45 2.2 °F 0.0 °F 1006.0 in WNW 1.6 mph 11.3 mph 85 % 0.0 in
03:00 2.1 °F 0.1 °F 1006.0 in NW 1.6 mph 11.3 mph 87 % 0.0 in
03:15 2.6 °F 0.3 °F 1006.0 in NW 4.8 mph 14.5 mph 85 % 0.0 in
03:30 3.0 °F 0.2 °F 1006.0 in NW 4.8 mph 14.5 mph 82 % 0.0 in
03:45 3.1 °F -0.1 °F 1006.0 in NW 6.4 mph 11.3 mph 80 % 0.0 in
04:00 3.0 °F -0.3 °F 1006.0 in NW 6.4 mph 14.5 mph 79 % 0.0 in
04:30 2.8 °F -0.6 °F 1006.0 in NW 6.4 mph 16.1 mph 78 % 0.0 in
04:45 2.8 °F -0.7 °F 1006.0 in NW 4.8 mph 12.9 mph 78 % 0.0 in
05:00 3.1 °F -0.4 °F 1006.3 in NNW 4.8 mph 16.1 mph 78 % 0.0 in
05:15 2.7 °F 0.4 °F 1006.3 in NNW 4.8 mph 12.9 mph 85 % 0.0 in
05:30 2.7 °F 0.6 °F 1006.3 in NW 4.8 mph 11.3 mph 86 % 0.0 in
05:45 2.4 °F 0.6 °F 1006.7 in NNW 4.8 mph 20.9 mph 88 % 0.3 in
06:00 2.2 °F 0.7 °F 1006.7 in NNW 6.4 mph 19.3 mph 90 % 0.5 in
06:15 2.2 °F 0.8 °F 1006.7 in NNW 4.8 mph 16.1 mph 91 % 0.5 in
06:30 2.2 °F 1.0 °F 1007.0 in NNW 4.8 mph 16.1 mph 92 % 0.5 in
06:45 2.1 °F 1.1 °F 1007.0 in NNW 6.4 mph 16.1 mph 93 % 0.3 in
07:00 2.1 °F 1.1 °F 1007.0 in NNW 6.4 mph 16.1 mph 93 % 0.3 in
07:15 2.2 °F 1.2 °F 1007.3 in NNW 6.4 mph 16.1 mph 93 % 0.3 in
07:30 2.1 °F 1.1 °F 1007.3 in North 6.4 mph 14.5 mph 93 % 0.5 in
07:45 2.2 °F 1.4 °F 1007.3 in NNW 4.8 mph 12.9 mph 94 % 0.5 in
08:00 2.2 °F 1.3 °F 1007.7 in NNW 6.4 mph 22.5 mph 94 % 0.5 in
08:15 2.2 °F 1.3 °F 1008.0 in NNW 6.4 mph 19.3 mph 94 % 0.5 in
08:45 2.2 °F 1.2 °F 1008.0 in North 6.4 mph 17.7 mph 93 % 0.0 in
09:00 2.4 °F 1.4 °F 1008.4 in NNW 6.4 mph 24.1 mph 93 % 0.0 in
09:15 2.5 °F 1.5 °F 1008.4 in NNW 6.4 mph 20.9 mph 93 % 0.0 in
09:30 2.7 °F 1.4 °F 1008.7 in NNW 8.0 mph 20.9 mph 91 % 0.0 in
09:45 3.0 °F 1.7 °F 1009.0 in North 6.4 mph 19.3 mph 91 % 0.0 in
10:00 2.9 °F 1.5 °F 1009.4 in North 6.4 mph 14.5 mph 90 % 0.0 in
10:15 2.9 °F 1.3 °F 1009.7 in North 6.4 mph 14.5 mph 89 % 0.0 in
10:30 3.2 °F 1.5 °F 1010.0 in North 6.4 mph 14.5 mph 89 % 0.0 in
10:45 3.2 °F 1.2 °F 1010.0 in North 8.0 mph 37.0 mph 87 % 0.0 in
11:00 3.1 °F 0.9 °F 1010.7 in North 8.0 mph 22.5 mph 86 % 0.0 in
11:15 3.2 °F 0.9 °F 1010.7 in North 6.4 mph 16.1 mph 85 % 0.0 in
11:30 3.3 °F 1.0 °F 1010.7 in North 4.8 mph 14.5 mph 85 % 0.0 in
11:45 3.6 °F 0.8 °F 1011.1 in North 6.4 mph 14.5 mph 82 % 0.0 in
12:00 4.1 °F 0.7 °F 1011.4 in North 6.4 mph 14.5 mph 79 % 0.0 in
12:15 4.6 °F 0.7 °F 1011.4 in North 6.4 mph 14.5 mph 76 % 0.0 in
12:30 4.8 °F 0.2 °F 1011.7 in North 9.7 mph 22.5 mph 72 % 0.0 in
12:45 5.6 °F 0.7 °F 1011.7 in North 8.0 mph 22.5 mph 71 % 0.0 in
13:00 5.7 °F 0.0 °F 1011.7 in NNW 9.7 mph 25.7 mph 67 % 0.0 in
13:15 5.9 °F 0.3 °F 1011.7 in North 9.7 mph 19.3 mph 67 % 0.0 in
13:30 6.9 °F 0.5 °F 1012.1 in North 9.7 mph 22.5 mph 64 % 0.0 in
13:45 7.3 °F -0.6 °F 1012.1 in NNW 11.3 mph 29.0 mph 57 % 0.0 in
14:00 7.4 °F 0.4 °F 1012.4 in North 8.0 mph 22.5 mph 61 % 0.0 in
14:15 7.6 °F -0.4 °F 1012.4 in North 9.7 mph 19.3 mph 57 % 0.0 in
14:30 7.4 °F -0.1 °F 1012.4 in North 9.7 mph 22.5 mph 59 % 0.0 in
14:45 7.8 °F -0.5 °F 1012.8 in North 8.0 mph 19.3 mph 56 % 0.0 in
15:00 8.1 °F 0.0 °F 1012.8 in North 8.0 mph 14.5 mph 57 % 0.0 in
15:15 8.2 °F -0.3 °F 1012.8 in NNW 9.7 mph 32.2 mph 55 % 0.0 in
15:30 8.9 °F -0.7 °F 1012.8 in NNW 9.7 mph 32.2 mph 51 % 0.0 in
15:45 8.9 °F -0.9 °F 1013.1 in North 11.3 mph 27.4 mph 50 % 0.0 in
16:00 9.1 °F -1.1 °F 1013.1 in NNW 9.7 mph 24.1 mph 49 % 0.0 in
16:15 9.4 °F 0.1 °F 1013.1 in North 6.4 mph 14.5 mph 52 % 0.0 in
16:30 9.7 °F -0.2 °F 1013.1 in North 6.4 mph 14.5 mph 50 % 0.0 in
16:45 9.4 °F -1.0 °F 1013.1 in North 8.0 mph 22.5 mph 48 % 0.0 in
17:00 9.4 °F -1.1 °F 1013.1 in North 9.7 mph 20.9 mph 48 % 0.0 in
17:15 10.0 °F -0.5 °F 1013.1 in North 6.4 mph 19.3 mph 48 % 0.0 in
17:30 9.7 °F 0.1 °F 1013.4 in North 6.4 mph 25.7 mph 51 % 0.0 in
17:45 9.7 °F -1.1 °F 1013.4 in NNE 8.0 mph 17.7 mph 47 % 0.0 in
18:00 9.9 °F 0.2 °F 1013.4 in North 4.8 mph 12.9 mph 51 % 0.0 in
18:15 9.8 °F -1.0 °F 1013.4 in North 6.4 mph 22.5 mph 47 % 0.0 in
18:30 9.7 °F 0.3 °F 1013.4 in North 4.8 mph 11.3 mph 52 % 0.0 in
18:45 9.7 °F -0.5 °F 1013.8 in Calm     49 % 0.0 in
19:00 9.4 °F -1.0 °F 1013.8 in Calm     48 % 0.0 in
19:15 9.3 °F -0.6 °F 1013.8 in Calm     50 % 0.0 in
19:30 9.3 °F -0.1 °F 1013.8 in Calm     52 % 0.0 in
19:45 9.0 °F -0.9 °F 1013.8 in Calm     50 % 0.0 in
20:00 8.8 °F -0.5 °F 1013.8 in Calm     52 % 0.0 in
20:15 8.5 °F -1.1 °F 1014.1 in Calm     51 % 0.0 in
20:30 8.4 °F -1.2 °F 1014.1 in Calm     51 % 0.0 in
20:45 8.2 °F -1.3 °F 1014.1 in Calm     51 % 0.0 in
21:00 7.8 °F -0.7 °F 1014.4 in Calm     55 % 0.0 in
21:15 7.3 °F -0.4 °F 1014.4 in Calm     58 % 0.0 in
21:30 7.2 °F -0.3 °F 1014.4 in Calm     59 % 0.0 in
21:45 7.0 °F -0.5 °F 1014.8 in Calm     59 % 0.0 in
22:00 6.9 °F -0.3 °F 1014.8 in Calm     60 % 0.0 in
22:15 6.8 °F -0.5 °F 1014.8 in Calm     60 % 0.0 in
22:30 6.6 °F -0.2 °F 1014.8 in Calm     62 % 0.0 in
22:45 6.4 °F -0.4 °F 1014.8 in Calm     62 % 0.0 in
23:00 6.2 °F -0.4 °F 1014.8 in Calm   1.6 mph 63 % 0.0 in
23:30 5.1 °F -0.3 °F 1014.8 in Calm   4.8 mph 68 % 0.0 in
23:45 5.1 °F -0.6 °F 1014.8 in Calm   4.8 mph 67 % 0.0 in
Esan sääasema
Terveisin Weather Underground - 2.75 mb

Alkuperäinen skripti  Jim McMurry - jmcmurry@mwt.net Sovitettu myös templatelle  Wim van der Kuil - Leuven-Template.eu

Laitteet joita käytämme:

Sääasema
Davis VP2

Sääasemaohjelma
Cumulus

Sääaseman tietokone
Asus EeePC

Palveluntarjoaja
Suncomet

Davis VP2

Cumulus

Asus EeePC

Suncomet